createdAt,value
2023-05-03T00:02:27.788Z,0.90
2023-05-03T00:04:57.165Z,1.10
2023-05-03T00:07:25.067Z,0.95
2023-05-03T00:09:54.264Z,1.48
2023-05-03T00:12:22.686Z,1.13
2023-05-03T00:14:50.499Z,0.82
2023-05-03T00:17:18.346Z,1.00
2023-05-03T00:19:46.361Z,0.75
2023-05-03T00:22:14.170Z,0.90
2023-05-03T00:24:41.987Z,0.95
2023-05-03T00:27:11.137Z,1.10
2023-05-03T00:29:38.921Z,0.77
2023-05-03T00:32:07.678Z,0.80
2023-05-03T00:34:35.983Z,1.15
2023-05-03T00:37:04.257Z,0.88
2023-05-03T00:39:32.239Z,1.20
2023-05-03T00:42:01.398Z,0.90
2023-05-03T00:44:30.658Z,0.98
2023-05-03T00:46:58.748Z,1.08
2023-05-03T00:49:27.107Z,1.02
2023-05-03T00:51:55.125Z,0.77
2023-05-03T00:54:23.788Z,1.15
2023-05-03T00:56:52.575Z,0.95
2023-05-03T00:59:21.088Z,0.80
2023-05-03T01:01:51.379Z,1.42
2023-05-03T01:04:20.089Z,1.00
2023-05-03T01:06:56.757Z,1.10
2023-05-03T01:09:40.483Z,0.80
2023-05-03T01:12:21.956Z,1.30
2023-05-03T01:14:59.513Z,0.60
2023-05-03T01:17:35.745Z,0.80
2023-05-03T01:20:10.365Z,0.80
2023-05-03T01:22:48.457Z,1.50
2023-05-03T01:25:17.653Z,1.30
2023-05-03T01:27:45.705Z,0.90
2023-05-03T01:30:14.319Z,0.90
2023-05-03T01:32:56.501Z,0.90
2023-05-03T01:35:30.200Z,1.15
2023-05-03T01:37:58.811Z,0.90
2023-05-03T01:40:30.321Z,0.85
2023-05-03T01:43:20.252Z,1.17
2023-05-03T01:45:48.822Z,1.00
2023-05-03T01:48:18.188Z,1.23
2023-05-03T01:50:46.852Z,0.88
2023-05-03T01:53:14.880Z,1.08
2023-05-03T01:55:44.042Z,0.77
2023-05-03T01:58:12.091Z,0.98
2023-05-03T02:00:39.984Z,1.00
2023-05-03T02:03:07.962Z,0.80
2023-05-03T02:05:36.335Z,1.48
2023-05-03T02:08:04.443Z,1.10
2023-05-03T02:10:32.261Z,1.25
2023-05-03T02:13:01.508Z,0.60
2023-05-03T02:15:29.315Z,0.93
2023-05-03T02:17:58.545Z,1.05
2023-05-03T02:20:26.490Z,1.50
2023-05-03T02:22:54.348Z,1.20
2023-05-03T02:25:22.275Z,1.05
2023-05-03T02:27:50.067Z,1.17
2023-05-03T02:30:19.362Z,0.70
2023-05-03T02:32:47.222Z,0.70
2023-05-03T02:35:15.054Z,0.95
2023-05-03T02:37:42.917Z,1.00
2023-05-03T02:40:11.871Z,1.48
2023-05-03T02:42:40.368Z,0.82
2023-05-03T02:45:09.026Z,0.90
2023-05-03T02:47:38.272Z,1.20
2023-05-03T02:50:06.767Z,0.90
2023-05-03T02:52:34.692Z,1.13
2023-05-03T02:55:02.679Z,1.05
2023-05-03T02:57:30.714Z,0.90
2023-05-03T02:59:58.573Z,0.75
2023-05-03T03:02:26.513Z,1.00
2023-05-03T03:04:55.772Z,1.10
2023-05-03T03:07:23.625Z,0.70
2023-05-03T03:09:51.452Z,0.90
2023-05-03T03:12:19.269Z,1.33
2023-05-03T03:14:47.082Z,1.52
2023-05-03T03:17:14.872Z,1.10
2023-05-03T03:19:42.683Z,0.98
2023-05-03T03:22:12.292Z,1.02
2023-05-03T03:24:40.090Z,0.90
2023-05-03T03:27:07.888Z,0.80
2023-05-03T03:29:36.716Z,1.05
2023-05-03T03:32:04.693Z,1.30
2023-05-03T03:34:33.021Z,1.30
2023-05-03T03:37:01.000Z,1.02
2023-05-03T03:39:30.146Z,1.00
2023-05-03T03:41:58.026Z,0.93
2023-05-03T03:44:25.946Z,0.80
2023-05-03T03:46:53.793Z,1.10
2023-05-03T03:49:21.695Z,0.93
2023-05-03T03:51:49.511Z,0.73
2023-05-03T03:54:17.303Z,0.85
2023-05-03T03:56:46.520Z,0.85
2023-05-03T03:59:14.519Z,1.50
2023-05-03T04:01:42.356Z,0.60
2023-05-03T04:04:10.320Z,1.10
2023-05-03T04:06:38.235Z,1.23
2023-05-03T04:09:06.235Z,0.95
2023-05-03T04:11:34.064Z,0.80
2023-05-03T04:14:04.195Z,0.80
2023-05-03T04:16:32.087Z,0.93
2023-05-03T04:18:59.968Z,0.90
2023-05-03T04:21:28.710Z,1.30
2023-05-03T04:23:56.569Z,0.90
2023-05-03T04:26:31.944Z,0.90
2023-05-03T04:29:00.577Z,1.00
2023-05-03T04:31:29.948Z,1.20
2023-05-03T04:33:57.972Z,0.90
2023-05-03T04:36:26.654Z,0.98
2023-05-03T04:38:54.504Z,1.00
2023-05-03T04:41:22.731Z,1.25
2023-05-03T04:43:50.755Z,0.95
2023-05-03T04:46:18.693Z,0.70
2023-05-03T04:48:47.886Z,1.05
2023-05-03T04:51:15.774Z,1.15
2023-05-03T04:53:43.603Z,1.15
2023-05-03T04:56:11.730Z,1.10
2023-05-03T04:58:39.549Z,1.25
2023-05-03T05:01:08.078Z,1.25
2023-05-03T05:03:36.154Z,0.80
2023-05-03T05:06:07.101Z,0.90
2023-05-03T05:08:35.305Z,0.90
2023-05-03T05:11:03.848Z,1.30
2023-05-03T05:13:31.748Z,1.05
2023-05-03T05:15:59.536Z,1.20
2023-05-03T05:18:27.372Z,1.27
2023-05-03T05:20:55.391Z,0.98
2023-05-03T05:23:24.606Z,1.25
2023-05-03T05:25:53.955Z,1.52
2023-05-03T05:28:21.811Z,1.33
2023-05-03T05:30:49.608Z,1.40
2023-05-03T05:33:19.212Z,1.23
2023-05-03T05:35:49.767Z,0.90
2023-05-03T05:38:18.417Z,1.13
2023-05-03T05:40:47.580Z,1.40
2023-05-03T05:43:15.397Z,0.80
2023-05-03T05:45:43.247Z,1.25
2023-05-03T05:48:11.230Z,1.00
2023-05-03T05:50:39.091Z,0.75
2023-05-03T05:53:08.963Z,1.00
2023-05-03T05:55:36.798Z,0.80
2023-05-03T05:58:06.209Z,1.02
2023-05-03T06:00:34.875Z,1.30
2023-05-03T06:03:02.741Z,0.68
2023-05-03T06:05:30.757Z,1.10
2023-05-03T06:07:58.628Z,1.00
2023-05-03T06:10:26.466Z,1.23
2023-05-03T06:12:54.346Z,1.10
2023-05-03T06:15:23.509Z,1.17
2023-05-03T06:17:51.368Z,0.82
2023-05-03T06:20:19.508Z,0.60
2023-05-03T06:22:47.371Z,0.80
2023-05-03T06:25:16.982Z,0.90
2023-05-03T06:27:45.774Z,0.90
2023-05-03T06:30:14.288Z,0.70
2023-05-03T06:32:44.352Z,0.82
2023-05-03T06:35:12.507Z,1.00
2023-05-03T06:37:40.490Z,0.77
2023-05-03T06:40:09.553Z,0.90
2023-05-03T06:42:37.408Z,0.70
2023-05-03T06:45:06.006Z,0.93
2023-05-03T06:47:33.989Z,0.82
2023-05-03T06:50:03.454Z,0.80
2023-05-03T06:52:31.454Z,1.13
2023-05-03T06:54:59.341Z,0.73
2023-05-03T06:57:28.815Z,0.90
2023-05-03T06:59:56.977Z,0.90
2023-05-03T07:02:25.967Z,0.70
2023-05-03T07:04:53.892Z,0.70
2023-05-03T07:07:23.244Z,0.70
2023-05-03T07:09:51.175Z,1.17
2023-05-03T07:12:19.025Z,1.00
2023-05-03T07:14:47.342Z,0.60
2023-05-03T07:17:15.181Z,0.73
2023-05-03T07:19:43.133Z,1.00
2023-05-03T07:22:11.014Z,0.80
2023-05-03T07:24:40.194Z,0.52
2023-05-03T07:27:08.340Z,0.98
2023-05-03T07:29:36.195Z,1.00
2023-05-03T07:32:04.592Z,1.30
2023-05-03T07:34:32.668Z,1.15
2023-05-03T07:37:00.541Z,1.20
2023-05-03T07:39:28.329Z,0.70
2023-05-03T07:41:57.548Z,0.90
2023-05-03T07:44:25.379Z,0.80
2023-05-03T07:46:53.206Z,0.80
2023-05-03T07:49:21.068Z,0.60
2023-05-03T07:51:48.901Z,0.50
2023-05-03T07:54:16.739Z,0.60
2023-05-03T07:56:44.721Z,0.80
2023-05-03T07:59:13.900Z,0.50
2023-05-03T08:01:41.753Z,1.08
2023-05-03T08:04:09.882Z,0.85
2023-05-03T08:06:38.573Z,0.68
2023-05-03T08:09:06.685Z,0.50
2023-05-03T08:11:34.768Z,0.98
2023-05-03T08:14:02.779Z,1.45
2023-05-03T08:16:32.016Z,0.65
2023-05-03T08:18:59.990Z,0.70
2023-05-03T08:21:28.505Z,0.60
2023-05-03T08:23:56.325Z,0.52
2023-05-03T08:26:28.541Z,0.43
2023-05-03T08:28:56.616Z,0.80
2023-05-03T08:31:24.487Z,0.60
2023-05-03T08:33:53.716Z,1.00
2023-05-03T08:36:21.539Z,2.10
2023-05-03T08:38:50.463Z,0.95
2023-05-03T08:41:31.133Z,0.70
2023-05-03T08:44:01.123Z,0.50
2023-05-03T08:46:29.758Z,0.75
2023-05-03T08:49:01.094Z,0.70
2023-05-03T08:51:29.008Z,0.60
2023-05-03T08:53:57.013Z,0.60
2023-05-03T08:56:33.160Z,0.90
2023-05-03T08:59:07.406Z,0.70
2023-05-03T09:01:37.227Z,0.50
2023-05-03T09:04:06.979Z,1.20
2023-05-03T09:06:36.379Z,0.80
2023-05-03T09:09:07.241Z,0.60
2023-05-03T09:11:36.635Z,0.52
2023-05-03T09:14:11.612Z,0.57
2023-05-03T09:16:40.874Z,0.50
2023-05-03T09:19:12.379Z,1.00
2023-05-03T09:21:40.910Z,0.60
2023-05-03T09:24:15.918Z,0.98
2023-05-03T09:26:44.287Z,0.60
2023-05-03T09:29:27.363Z,0.80
2023-05-03T09:32:00.611Z,0.57
2023-05-03T09:34:30.008Z,1.05
2023-05-03T09:36:57.885Z,0.50
2023-05-03T09:39:26.432Z,0.50
2023-05-03T09:41:54.932Z,0.57
2023-05-03T09:44:41.596Z,0.63
2023-05-03T09:47:10.045Z,0.50
2023-05-03T09:49:39.552Z,0.40
2023-05-03T09:52:08.789Z,0.60
2023-05-03T09:54:38.012Z,0.68
2023-05-03T09:57:07.997Z,0.40
2023-05-03T09:59:37.445Z,1.00
2023-05-03T10:02:08.326Z,0.60
2023-05-03T10:04:44.622Z,0.77
2023-05-03T10:07:15.236Z,1.02
2023-05-03T10:09:45.618Z,0.65
2023-05-03T10:12:16.985Z,0.70
2023-05-03T10:14:46.983Z,0.50
2023-05-03T10:17:19.497Z,0.88
2023-05-03T10:19:56.746Z,0.80
2023-05-03T10:22:24.672Z,0.80
2023-05-03T10:25:13.996Z,0.43
2023-05-03T10:27:52.806Z,0.70
2023-05-03T10:30:32.551Z,0.80
2023-05-03T10:33:00.733Z,0.60
2023-05-03T10:35:31.660Z,0.50
2023-05-03T10:37:59.528Z,0.60
2023-05-03T10:40:42.771Z,0.60
2023-05-03T10:43:46.845Z,0.50
2023-05-03T10:46:35.735Z,0.70
2023-05-03T10:49:23.660Z,0.50
2023-05-03T10:51:51.752Z,0.70
2023-05-03T10:54:19.991Z,0.50
2023-05-03T10:56:56.347Z,0.82
2023-05-03T10:59:26.297Z,0.70
2023-05-03T11:01:54.458Z,0.60
2023-05-03T11:04:39.293Z,0.63
2023-05-03T11:07:07.198Z,0.60
2023-05-03T11:09:35.723Z,0.98
2023-05-03T11:12:08.451Z,0.50
2023-05-03T11:14:39.578Z,0.60
2023-05-03T11:17:07.492Z,0.52
2023-05-03T11:19:35.352Z,0.75
2023-05-03T11:22:03.278Z,0.60
2023-05-03T11:24:31.137Z,0.60
2023-05-03T11:26:58.968Z,0.80
2023-05-03T11:29:27.262Z,0.50
2023-05-03T11:31:57.158Z,0.60
2023-05-03T11:34:25.848Z,0.40
2023-05-03T11:36:53.686Z,0.90
2023-05-03T11:39:21.541Z,0.57
2023-05-03T11:42:04.274Z,0.80
2023-05-03T11:44:32.218Z,0.50
2023-05-03T11:47:01.805Z,0.70
2023-05-03T11:49:30.098Z,0.60
2023-05-03T11:51:58.617Z,0.93
2023-05-03T11:54:28.001Z,0.63
2023-05-03T11:57:00.009Z,0.57
2023-05-03T11:59:38.569Z,0.60
2023-05-03T12:02:10.724Z,0.50
2023-05-03T12:04:41.582Z,0.50
2023-05-03T12:07:11.324Z,0.70
2023-05-03T12:09:40.637Z,0.60
2023-05-03T12:12:10.854Z,0.70
2023-05-03T12:15:00.359Z,0.50
2023-05-03T12:17:38.389Z,0.38
2023-05-03T12:22:53.801Z,0.50
2023-05-03T12:25:26.886Z,0.50
2023-05-03T12:28:17.963Z,1.05
2023-05-03T12:30:46.678Z,0.75
2023-05-03T12:33:21.736Z,0.70
2023-05-03T12:35:53.512Z,0.40
2023-05-03T12:38:23.926Z,0.57
2023-05-03T12:40:53.102Z,0.50
2023-05-03T12:43:21.501Z,0.50
2023-05-03T12:46:01.562Z,0.50
2023-05-03T12:48:38.923Z,0.70
2023-05-03T12:51:19.499Z,0.40
2023-05-03T12:53:54.349Z,0.70
2023-05-03T12:56:24.863Z,0.50
2023-05-03T12:59:19.018Z,0.60
2023-05-03T13:06:46.835Z,0.50
2023-05-03T13:09:20.504Z,0.55
2023-05-03T13:11:50.972Z,0.40
2023-05-03T13:14:19.003Z,0.90
2023-05-03T13:16:47.461Z,0.50
2023-05-03T13:19:17.279Z,0.50
2023-05-03T13:21:45.132Z,0.55
2023-05-03T13:24:12.961Z,0.60
2023-05-03T13:26:40.784Z,0.60
2023-05-03T13:29:09.357Z,0.40
2023-05-03T13:31:37.293Z,0.70
2023-05-03T13:34:06.758Z,0.40
2023-05-03T13:36:36.046Z,0.57
2023-05-03T13:39:03.909Z,0.77
2023-05-03T13:41:32.060Z,0.50
2023-05-03T13:43:59.897Z,0.90
2023-05-03T13:46:27.727Z,0.60
2023-05-03T13:48:56.380Z,0.50
2023-05-03T13:51:25.625Z,0.43
2023-05-03T13:53:54.882Z,0.50
2023-05-03T13:56:22.710Z,0.40
2023-05-03T13:58:50.757Z,0.50
2023-05-03T14:01:18.726Z,0.80
2023-05-03T14:03:46.605Z,0.70
2023-05-03T14:06:14.794Z,0.80
2023-05-03T14:08:42.757Z,0.50
2023-05-03T14:11:14.961Z,0.57
2023-05-03T14:13:55.378Z,0.50
2023-05-03T14:19:00.029Z,0.60
2023-05-03T14:21:31.682Z,0.50
2023-05-03T14:23:59.501Z,0.52
2023-05-03T14:26:29.327Z,0.50
2023-05-03T14:28:57.372Z,0.50
2023-05-03T14:31:25.428Z,0.50
2023-05-03T14:33:53.557Z,0.40
2023-05-03T14:36:21.484Z,0.55
2023-05-03T14:38:49.402Z,0.45
2023-05-03T14:41:17.227Z,0.63
2023-05-03T14:43:47.305Z,0.60
2023-05-03T14:46:15.209Z,0.50
2023-05-03T14:48:43.050Z,0.47
2023-05-03T14:51:10.861Z,0.82
2023-05-03T14:53:38.688Z,0.80
2023-05-03T14:56:06.854Z,0.60
2023-05-03T14:58:34.705Z,0.50
2023-05-03T15:01:03.930Z,0.70
2023-05-03T15:03:32.040Z,0.75
2023-05-03T15:06:00.243Z,0.60
2023-05-03T15:08:28.784Z,0.47
2023-05-03T15:10:56.645Z,0.57
2023-05-03T15:13:25.023Z,0.50
2023-05-03T15:15:53.216Z,0.40
2023-05-03T15:18:23.033Z,0.50
2023-05-03T15:20:51.158Z,0.60
2023-05-03T15:23:18.993Z,0.60
2023-05-03T15:25:46.777Z,0.50
2023-05-03T15:28:14.610Z,0.60
2023-05-03T15:30:42.454Z,0.52
2023-05-03T15:33:11.227Z,0.70
2023-05-03T15:35:41.850Z,0.50
2023-05-03T15:38:09.798Z,0.50
2023-05-03T15:40:37.745Z,0.60
2023-05-03T15:43:05.626Z,0.50
2023-05-03T15:45:33.462Z,0.73
2023-05-03T15:48:01.819Z,0.60
2023-05-03T15:50:31.385Z,0.50
2023-05-03T15:53:00.582Z,0.50
2023-05-03T15:55:28.413Z,0.47
2023-05-03T15:57:57.043Z,0.40
2023-05-03T16:00:25.765Z,0.40
2023-05-03T16:02:53.977Z,0.40
2023-05-03T16:05:23.085Z,0.63
2023-05-03T16:07:51.821Z,0.88
2023-05-03T16:10:23.389Z,0.55
2023-05-03T16:12:52.551Z,0.50
2023-05-03T16:15:20.521Z,0.50
2023-05-03T16:17:49.348Z,0.60
2023-05-03T16:20:17.234Z,0.60
2023-05-03T16:22:46.123Z,0.40
2023-05-03T16:25:15.393Z,0.47
2023-05-03T16:27:44.588Z,0.50
2023-05-03T16:30:13.182Z,0.60
2023-05-03T16:32:43.785Z,0.40
2023-05-03T16:35:11.751Z,0.60
2023-05-03T16:37:40.719Z,0.40
2023-05-03T16:40:11.255Z,0.73
2023-05-03T16:42:39.586Z,0.50
2023-05-03T16:45:10.697Z,0.57
2023-05-03T16:47:38.728Z,0.85
2023-05-03T16:50:08.417Z,0.50
2023-05-03T16:52:39.856Z,0.40
2023-05-03T16:55:08.992Z,0.70
2023-05-03T16:57:37.457Z,0.50
2023-05-03T17:00:09.171Z,0.50
2023-05-03T17:02:39.774Z,0.55
2023-05-03T17:05:08.799Z,0.60
2023-05-03T17:07:36.644Z,0.40
2023-05-03T17:10:06.270Z,0.47
2023-05-03T17:12:34.668Z,0.60
2023-05-03T17:15:02.588Z,0.50
2023-05-03T17:17:32.190Z,0.50
2023-05-03T17:20:01.569Z,0.50
2023-05-03T17:22:29.567Z,0.40
2023-05-03T17:24:58.267Z,0.50
2023-05-03T17:27:26.293Z,0.63
2023-05-03T17:29:56.840Z,0.65
2023-05-03T17:32:24.820Z,0.52
2023-05-03T17:34:52.716Z,0.40
2023-05-03T17:37:23.717Z,0.40
2023-05-03T17:39:51.590Z,0.47
2023-05-03T17:42:20.214Z,0.60
2023-05-03T17:44:48.032Z,0.50
2023-05-03T17:47:16.643Z,0.50
2023-05-03T17:49:44.549Z,0.60
2023-05-03T17:52:12.370Z,0.60
2023-05-03T17:54:43.034Z,0.50
2023-05-03T17:57:11.049Z,0.40
2023-05-03T17:59:39.046Z,0.57
2023-05-03T18:02:08.224Z,0.40
2023-05-03T18:04:36.372Z,0.50
2023-05-03T18:07:04.197Z,0.40
2023-05-03T18:09:32.957Z,0.50
2023-05-03T18:12:03.515Z,0.63
2023-05-03T18:14:31.858Z,0.40
2023-05-03T18:16:59.676Z,0.40
2023-05-03T18:19:27.522Z,0.75
2023-05-03T18:21:55.320Z,0.40
2023-05-03T18:24:23.595Z,0.80
2023-05-03T18:26:51.449Z,0.57
2023-05-03T18:29:20.625Z,0.57
2023-05-03T18:31:49.171Z,0.52
2023-05-03T18:34:17.099Z,0.40
2023-05-03T18:36:44.898Z,0.40
2023-05-03T18:39:13.012Z,0.40
2023-05-03T18:41:40.897Z,0.50
2023-05-03T18:44:08.700Z,0.40
2023-05-03T18:46:38.111Z,0.70
2023-05-03T18:49:05.992Z,0.40
2023-05-03T18:51:33.803Z,0.40
2023-05-03T18:54:01.686Z,0.40
2023-05-03T18:56:31.259Z,0.60
2023-05-03T18:58:59.116Z,0.45
2023-05-03T19:01:27.339Z,0.40
2023-05-03T19:03:56.956Z,0.40
2023-05-03T19:06:24.772Z,0.40
2023-05-03T19:08:53.608Z,0.40
2023-05-03T19:11:21.627Z,0.40
2023-05-03T19:13:49.444Z,0.40
2023-05-03T19:16:17.540Z,0.40
2023-05-03T19:18:46.041Z,0.35
2023-05-03T19:21:17.159Z,0.40
2023-05-03T19:23:45.182Z,0.40
2023-05-03T19:26:13.060Z,0.50
2023-05-03T19:28:40.857Z,0.50
2023-05-03T19:31:08.786Z,0.90
2023-05-03T19:33:37.177Z,0.82
2023-05-03T19:36:07.097Z,0.40
2023-05-03T19:38:36.669Z,0.45
2023-05-03T19:41:08.124Z,0.73
2023-05-03T19:43:36.092Z,1.20
2023-05-03T19:46:03.954Z,0.40
2023-05-03T19:48:32.061Z,0.38
2023-05-03T19:50:59.887Z,0.50
2023-05-03T19:53:28.212Z,0.40
2023-05-03T19:55:58.850Z,0.50
2023-05-03T19:58:27.552Z,0.45
2023-05-03T20:00:55.659Z,0.47
2023-05-03T20:03:24.276Z,0.30
2023-05-03T20:05:52.539Z,0.40
2023-05-03T20:08:20.436Z,0.40
2023-05-03T20:10:49.751Z,0.40
2023-05-03T20:13:19.172Z,0.40
2023-05-03T20:15:47.831Z,0.60
2023-05-03T20:18:15.895Z,0.50
2023-05-03T20:20:43.761Z,0.68
2023-05-03T20:23:11.849Z,0.40
2023-05-03T20:25:39.681Z,0.30
2023-05-03T20:28:07.916Z,0.50
2023-05-03T20:30:37.195Z,0.40
2023-05-03T20:33:05.295Z,0.50
2023-05-03T20:35:33.206Z,0.40
2023-05-03T20:38:01.075Z,0.40
2023-05-03T20:40:28.887Z,0.50
2023-05-03T20:42:56.713Z,0.40
2023-05-03T20:45:24.602Z,0.77
2023-05-03T20:47:53.831Z,0.40
2023-05-03T20:50:22.097Z,0.40
2023-05-03T20:52:50.103Z,0.40
2023-05-03T20:55:18.186Z,0.50
2023-05-03T20:57:46.105Z,0.30
2023-05-03T21:00:15.797Z,0.40
2023-05-03T21:02:44.061Z,0.50
2023-05-03T21:05:13.419Z,0.65
2023-05-03T21:07:41.744Z,0.50
2023-05-03T21:10:10.694Z,0.50
2023-05-03T21:12:38.572Z,0.30
2023-05-03T21:15:07.277Z,0.50
2023-05-03T21:17:35.206Z,0.40
2023-05-03T21:20:03.863Z,0.40
2023-05-03T21:22:33.332Z,0.40
2023-05-03T21:25:01.293Z,0.50
2023-05-03T21:27:29.121Z,0.60
2023-05-03T21:29:57.001Z,0.85
2023-05-03T21:32:24.842Z,0.38
2023-05-03T21:34:53.686Z,0.50
2023-05-03T21:37:21.629Z,0.40
2023-05-03T21:40:00.937Z,0.40
2023-05-03T21:42:29.622Z,0.50
2023-05-03T21:44:57.607Z,0.50
2023-05-03T21:47:25.489Z,0.43
2023-05-03T21:49:53.308Z,0.50
2023-05-03T21:52:21.260Z,0.38
2023-05-03T21:54:50.424Z,0.40
2023-05-03T21:57:18.880Z,0.50
2023-05-03T21:59:47.329Z,0.40
2023-05-03T22:02:15.213Z,0.40
2023-05-03T22:04:43.469Z,0.40
2023-05-03T22:07:11.360Z,0.40
2023-05-03T22:09:39.185Z,0.52
2023-05-03T22:12:22.266Z,1.00
2023-05-03T22:14:52.229Z,0.63
2023-05-03T22:17:20.590Z,0.50
2023-05-03T22:19:48.621Z,0.35
2023-05-03T22:22:16.526Z,0.55
2023-05-03T22:24:44.581Z,0.50
2023-05-03T22:27:13.721Z,0.52
2023-05-03T22:29:41.699Z,0.65
2023-05-03T22:32:09.620Z,0.80
2023-05-03T22:34:37.417Z,0.50
2023-05-03T22:37:05.253Z,0.50
2023-05-03T22:39:33.169Z,0.50
2023-05-03T22:42:01.018Z,0.50
2023-05-03T22:44:30.406Z,0.50
2023-05-03T22:46:58.266Z,0.50
2023-05-03T22:49:26.293Z,0.60
2023-05-03T22:51:54.127Z,0.50
2023-05-03T22:54:22.472Z,0.60
2023-05-03T22:56:51.589Z,0.70
2023-05-03T22:59:29.830Z,0.50
2023-05-03T23:01:57.718Z,0.40
2023-05-03T23:04:25.640Z,0.90
2023-05-03T23:06:53.847Z,0.40
2023-05-03T23:09:21.719Z,0.60
2023-05-03T23:11:49.569Z,0.40
2023-05-03T23:14:17.526Z,0.40
2023-05-03T23:16:46.943Z,0.52
2023-05-03T23:19:14.770Z,0.50
2023-05-03T23:21:42.852Z,0.77
2023-05-03T23:24:11.382Z,0.43
2023-05-03T23:26:39.476Z,0.40
2023-05-03T23:29:08.432Z,0.40
2023-05-03T23:31:36.997Z,0.60
2023-05-03T23:34:06.965Z,0.40
2023-05-03T23:36:34.836Z,0.60
2023-05-03T23:39:02.861Z,0.40
2023-05-03T23:41:30.752Z,0.82
2023-05-03T23:43:58.578Z,0.50
2023-05-03T23:46:26.752Z,0.50
2023-05-03T23:48:54.839Z,0.40
2023-05-03T23:51:24.010Z,0.40
2023-05-03T23:53:52.755Z,0.52
2023-05-03T23:56:20.653Z,0.40
2023-05-03T23:58:48.538Z,0.40
